createdAt,value
2023-11-07T00:00:41.259Z,21.73
2023-11-07T00:01:46.773Z,21.73
2023-11-07T00:02:52.263Z,21.73
2023-11-07T00:03:58.161Z,21.72
2023-11-07T00:05:04.290Z,21.73
2023-11-07T00:06:09.931Z,21.74
2023-11-07T00:07:15.489Z,21.71
2023-11-07T00:08:21.015Z,21.7
2023-11-07T00:09:26.500Z,21.7
2023-11-07T00:10:31.968Z,21.68
2023-11-07T00:11:37.523Z,21.66
2023-11-07T00:12:43.139Z,21.66
2023-11-07T00:13:48.629Z,21.66
2023-11-07T00:14:54.168Z,21.67
2023-11-07T00:15:59.743Z,21.69
2023-11-07T00:17:05.230Z,21.67
2023-11-07T00:18:10.884Z,21.66
2023-11-07T00:19:16.723Z,21.64
2023-11-07T00:20:22.437Z,21.65
2023-11-07T00:21:27.923Z,21.66
2023-11-07T00:22:33.406Z,21.64
2023-11-07T00:23:39.129Z,21.63
2023-11-07T00:24:44.810Z,21.66
2023-11-07T00:25:50.313Z,21.64
2023-11-07T00:26:55.892Z,21.64
2023-11-07T00:28:01.512Z,21.62
2023-11-07T00:29:07.012Z,21.62
2023-11-07T00:30:12.517Z,21.62
2023-11-07T00:31:18.020Z,21.6
2023-11-07T00:32:23.578Z,21.63
2023-11-07T00:33:29.242Z,21.62
2023-11-07T00:34:35.244Z,21.6
2023-11-07T00:35:43.428Z,21.61
2023-11-07T00:36:49.168Z,21.6
2023-11-07T00:37:54.658Z,21.61
2023-11-07T00:39:00.178Z,21.62
2023-11-07T00:40:05.884Z,21.64
2023-11-07T00:41:11.418Z,21.61
2023-11-07T00:42:16.993Z,21.61
2023-11-07T00:43:22.608Z,21.61
2023-11-07T00:44:28.138Z,21.6
2023-11-07T00:45:33.676Z,21.6
2023-11-07T00:46:39.179Z,21.6
2023-11-07T00:47:44.848Z,21.6
2023-11-07T00:48:51.046Z,21.59
2023-11-07T00:49:56.940Z,21.6
2023-11-07T00:51:02.481Z,21.6
2023-11-07T00:52:08.230Z,21.59
2023-11-07T00:53:13.709Z,21.56
2023-11-07T00:54:19.228Z,21.57
2023-11-07T00:55:24.776Z,21.58
2023-11-07T00:56:30.273Z,21.57
2023-11-07T00:57:35.944Z,21.57
2023-11-07T00:58:41.400Z,21.58
2023-11-07T00:59:46.972Z,21.58
2023-11-07T01:00:52.619Z,21.57
2023-11-07T01:01:58.148Z,21.58
2023-11-07T01:03:03.747Z,21.59
2023-11-07T01:04:09.985Z,21.59
2023-11-07T01:05:16.155Z,21.58
2023-11-07T01:06:22.437Z,21.58
2023-11-07T01:07:28.167Z,21.58
2023-11-07T01:08:33.739Z,21.58
2023-11-07T01:09:39.416Z,21.57
2023-11-07T01:10:44.912Z,21.57
2023-11-07T01:11:50.461Z,21.57
2023-11-07T01:12:57.150Z,21.57
2023-11-07T01:14:02.659Z,21.54
2023-11-07T01:15:08.598Z,21.53
2023-11-07T01:16:14.231Z,21.54
2023-11-07T01:17:19.797Z,21.56
2023-11-07T01:18:26.023Z,21.53
2023-11-07T01:19:31.977Z,21.52
2023-11-07T01:20:37.500Z,21.51
2023-11-07T01:21:43.143Z,21.5
2023-11-07T01:22:48.692Z,21.49
2023-11-07T01:23:54.259Z,21.5
2023-11-07T01:25:00.879Z,21.5
2023-11-07T01:26:06.374Z,21.49
2023-11-07T01:27:11.944Z,21.51
2023-11-07T01:28:17.512Z,21.52
2023-11-07T01:29:23.051Z,21.49
2023-11-07T01:30:28.515Z,21.48
2023-11-07T01:31:34.032Z,21.5
2023-11-07T01:32:39.653Z,21.48
2023-11-07T01:33:45.589Z,21.48
2023-11-07T01:34:51.467Z,21.48
2023-11-07T01:35:57.042Z,21.46
2023-11-07T01:37:02.711Z,21.46
2023-11-07T01:38:08.233Z,21.46
2023-11-07T01:39:13.741Z,21.45
2023-11-07T01:40:19.355Z,21.47
2023-11-07T01:41:24.946Z,21.48
2023-11-07T01:42:30.447Z,21.46
2023-11-07T01:43:36.002Z,21.46
2023-11-07T01:44:41.473Z,21.49
2023-11-07T01:45:47.065Z,21.46
2023-11-07T01:46:52.588Z,21.46
2023-11-07T01:47:58.141Z,21.44
2023-11-07T01:49:04.931Z,21.43
2023-11-07T01:50:10.498Z,21.44
2023-11-07T01:51:16.001Z,21.43
2023-11-07T01:52:21.556Z,21.42
2023-11-07T01:53:27.098Z,21.45
2023-11-07T01:54:32.624Z,21.45
2023-11-07T01:55:38.089Z,21.43
2023-11-07T01:56:43.644Z,21.43
2023-11-07T01:57:49.239Z,21.43
2023-11-07T01:58:54.720Z,21.42
2023-11-07T02:00:00.268Z,21.42
2023-11-07T02:01:05.928Z,21.44
2023-11-07T02:02:11.483Z,21.43
2023-11-07T02:03:17.247Z,21.42
2023-11-07T02:04:23.240Z,21.42
2023-11-07T02:05:29.097Z,21.43
2023-11-07T02:06:34.962Z,21.44
2023-11-07T02:07:40.508Z,21.45
2023-11-07T02:08:46.041Z,21.45
2023-11-07T02:09:51.698Z,21.44
2023-11-07T02:10:57.137Z,21.45
2023-11-07T02:12:02.664Z,21.46
2023-11-07T02:13:08.330Z,21.44
2023-11-07T02:14:14.865Z,21.45
2023-11-07T02:15:20.519Z,21.44
2023-11-07T02:16:26.114Z,21.44
2023-11-07T02:17:31.710Z,21.44
2023-11-07T02:18:37.468Z,21.43
2023-11-07T02:19:43.347Z,21.44
2023-11-07T02:20:48.905Z,21.44
2023-11-07T02:21:54.524Z,21.45
2023-11-07T02:23:00.012Z,21.47
2023-11-07T02:24:05.543Z,21.48
2023-11-07T02:25:11.228Z,21.49
2023-11-07T02:26:16.731Z,21.49
2023-11-07T02:27:22.196Z,21.44
2023-11-07T02:28:27.748Z,21.43
2023-11-07T02:29:33.260Z,21.43
2023-11-07T02:30:38.946Z,21.44
2023-11-07T02:31:44.454Z,21.43
2023-11-07T02:32:50.019Z,21.44
2023-11-07T02:33:56.188Z,21.42
2023-11-07T02:35:02.093Z,21.4
2023-11-07T02:36:07.649Z,21.39
2023-11-07T02:37:13.311Z,21.37
2023-11-07T02:38:18.817Z,21.39
2023-11-07T02:39:24.339Z,21.41
2023-11-07T02:40:29.849Z,21.42
2023-11-07T02:41:35.422Z,21.43
2023-11-07T02:42:40.960Z,21.43
2023-11-07T02:43:46.467Z,21.42
2023-11-07T02:44:52.070Z,21.42
2023-11-07T02:45:57.670Z,21.41
2023-11-07T02:47:03.162Z,21.42
2023-11-07T02:48:08.739Z,21.4
2023-11-07T02:49:14.523Z,21.4
2023-11-07T02:50:20.497Z,21.41
2023-11-07T02:51:25.978Z,21.42
2023-11-07T02:52:31.450Z,21.43
2023-11-07T02:53:36.949Z,21.41
2023-11-07T02:54:42.776Z,21.41
2023-11-07T02:55:48.311Z,21.4
2023-11-07T02:56:53.918Z,21.39
2023-11-07T02:57:59.543Z,21.4
2023-11-07T02:59:05.052Z,21.41
2023-11-07T03:00:10.611Z,21.4
2023-11-07T03:01:16.339Z,21.4
2023-11-07T03:02:21.848Z,21.42
2023-11-07T03:03:27.414Z,21.41
2023-11-07T03:04:33.266Z,21.4
2023-11-07T03:05:38.811Z,21.43
2023-11-07T03:06:44.831Z,21.42
2023-11-07T03:07:50.532Z,21.43
2023-11-07T03:08:56.052Z,21.43
2023-11-07T03:10:01.619Z,21.43
2023-11-07T03:11:07.460Z,21.42
2023-11-07T03:12:13.005Z,21.43
2023-11-07T03:13:18.459Z,21.42
2023-11-07T03:14:23.995Z,21.41
2023-11-07T03:15:29.554Z,21.4
2023-11-07T03:16:35.052Z,21.41
2023-11-07T03:17:40.620Z,21.41
2023-11-07T03:18:46.402Z,21.41
2023-11-07T03:19:52.336Z,21.41
2023-11-07T03:20:57.851Z,21.4
2023-11-07T03:22:03.644Z,21.41
2023-11-07T03:23:09.326Z,21.42
2023-11-07T03:24:14.884Z,21.41
2023-11-07T03:25:20.372Z,21.43
2023-11-07T03:26:25.867Z,21.42
2023-11-07T03:27:31.403Z,21.42
2023-11-07T03:28:36.887Z,21.41
2023-11-07T03:29:42.397Z,21.4
2023-11-07T03:30:47.963Z,21.41
2023-11-07T03:31:53.445Z,21.4
2023-11-07T03:32:59.351Z,21.41
2023-11-07T03:34:05.289Z,21.4
2023-11-07T03:35:11.124Z,21.4
2023-11-07T03:36:16.633Z,21.4
2023-11-07T03:37:22.209Z,21.39
2023-11-07T03:38:27.712Z,21.39
2023-11-07T03:39:35.441Z,21.39
2023-11-07T03:40:40.938Z,21.38
2023-11-07T03:41:46.523Z,21.4
2023-11-07T03:42:52.104Z,21.39
2023-11-07T03:43:57.623Z,21.4
2023-11-07T03:45:03.126Z,21.38
2023-11-07T03:46:08.874Z,21.35
2023-11-07T03:47:14.377Z,21.37
2023-11-07T03:48:19.983Z,21.37
2023-11-07T03:49:25.903Z,21.35
2023-11-07T03:50:31.468Z,21.37
2023-11-07T03:51:37.300Z,21.35
2023-11-07T03:52:42.811Z,21.35
2023-11-07T03:53:48.332Z,21.34
2023-11-07T03:54:53.952Z,21.36
2023-11-07T03:55:59.491Z,21.36
2023-11-07T03:57:05.135Z,21.37
2023-11-07T03:58:10.895Z,21.36
2023-11-07T03:59:16.431Z,21.37
2023-11-07T04:00:21.935Z,21.36
2023-11-07T04:01:27.458Z,21.36
2023-11-07T04:02:33.268Z,21.36
2023-11-07T04:03:38.982Z,21.33
2023-11-07T04:04:44.817Z,21.34
2023-11-07T04:05:50.589Z,21.34
2023-11-07T04:06:56.363Z,21.32
2023-11-07T04:08:01.842Z,21.33
2023-11-07T04:09:07.376Z,21.35
2023-11-07T04:10:13.172Z,21.36
2023-11-07T04:11:18.657Z,21.36
2023-11-07T04:12:24.151Z,21.36
2023-11-07T04:13:29.653Z,21.36
2023-11-07T04:14:35.251Z,21.36
2023-11-07T04:15:40.891Z,21.36
2023-11-07T04:16:46.479Z,21.34
2023-11-07T04:17:52.035Z,21.34
2023-11-07T04:18:58.022Z,21.36
2023-11-07T04:20:03.856Z,21.37
2023-11-07T04:21:09.489Z,21.37
2023-11-07T04:22:15.049Z,21.38
2023-11-07T04:23:20.539Z,21.38
2023-11-07T04:24:26.043Z,21.37
2023-11-07T04:25:31.531Z,21.38
2023-11-07T04:26:37.041Z,21.38
2023-11-07T04:27:42.619Z,21.37
2023-11-07T04:28:48.361Z,21.38
2023-11-07T04:29:54.062Z,21.39
2023-11-07T04:30:59.748Z,21.4
2023-11-07T04:32:05.292Z,21.41
2023-11-07T04:33:10.840Z,21.43
2023-11-07T04:34:16.645Z,21.43
2023-11-07T04:35:22.298Z,21.42
2023-11-07T04:36:27.802Z,21.42
2023-11-07T04:37:33.329Z,21.42
2023-11-07T04:38:38.856Z,21.41
2023-11-07T04:39:44.379Z,21.42
2023-11-07T04:40:49.847Z,21.41
2023-11-07T04:41:55.363Z,21.4
2023-11-07T04:43:00.990Z,21.41
2023-11-07T04:44:06.595Z,21.41
2023-11-07T04:45:12.233Z,21.42
2023-11-07T04:46:17.852Z,21.43
2023-11-07T04:47:23.301Z,21.44
2023-11-07T04:48:29.055Z,21.45
2023-11-07T04:49:35.338Z,21.44
2023-11-07T04:50:41.443Z,21.44
2023-11-07T04:51:47.038Z,21.44
2023-11-07T04:52:52.580Z,21.45
2023-11-07T04:53:58.099Z,21.46
2023-11-07T04:55:03.690Z,21.45
2023-11-07T04:56:09.257Z,21.5
2023-11-07T04:57:14.851Z,21.5
2023-11-07T04:58:20.433Z,21.48
2023-11-07T04:59:25.954Z,21.44
2023-11-07T05:00:33.970Z,21.41
2023-11-07T05:01:39.460Z,21.39
2023-11-07T05:02:44.964Z,21.35
2023-11-07T05:03:51.065Z,21.35
2023-11-07T05:04:57.422Z,21.34
2023-11-07T05:06:03.126Z,21.37
2023-11-07T05:07:08.881Z,21.4
2023-11-07T05:08:14.401Z,21.43
2023-11-07T05:09:19.908Z,21.45
2023-11-07T05:10:25.616Z,21.5
2023-11-07T05:11:31.117Z,21.51
2023-11-07T05:12:36.633Z,21.55
2023-11-07T05:13:42.140Z,21.57
2023-11-07T05:14:47.670Z,21.59
2023-11-07T05:15:55.522Z,21.6
2023-11-07T05:17:00.993Z,21.62
2023-11-07T05:18:06.701Z,21.65
2023-11-07T05:19:12.569Z,21.66
2023-11-07T05:20:18.373Z,21.67
2023-11-07T05:21:23.849Z,21.67
2023-11-07T05:22:29.355Z,21.68
2023-11-07T05:23:34.833Z,21.67
2023-11-07T05:24:40.579Z,21.7
2023-11-07T05:25:46.053Z,21.71
2023-11-07T05:26:51.577Z,21.71
2023-11-07T05:27:57.348Z,21.72
2023-11-07T05:29:02.851Z,21.74
2023-11-07T05:30:11.389Z,21.75
2023-11-07T05:31:16.956Z,21.76
2023-11-07T05:32:22.436Z,21.77
2023-11-07T05:33:28.065Z,21.78
2023-11-07T05:34:34.032Z,21.79
2023-11-07T05:35:39.566Z,21.8
2023-11-07T05:36:45.168Z,21.81
2023-11-07T05:37:50.697Z,21.82
2023-11-07T05:38:56.216Z,21.83
2023-11-07T05:40:01.973Z,21.84
2023-11-07T05:41:07.471Z,21.85
2023-11-07T05:42:12.953Z,21.87
2023-11-07T05:43:18.691Z,21.86
2023-11-07T05:44:24.188Z,21.86
2023-11-07T05:45:29.683Z,21.85
2023-11-07T05:46:35.166Z,21.84
2023-11-07T05:47:40.677Z,21.84
2023-11-07T05:48:46.679Z,21.83
2023-11-07T05:49:53.609Z,21.82
2023-11-07T05:50:59.155Z,21.8
2023-11-07T05:52:04.822Z,21.79
2023-11-07T05:53:10.428Z,21.78
2023-11-07T05:54:15.978Z,21.77
2023-11-07T05:55:21.596Z,21.76
2023-11-07T05:56:27.085Z,21.74
2023-11-07T05:57:32.555Z,21.73
2023-11-07T05:58:38.060Z,21.72
2023-11-07T05:59:43.622Z,21.71
2023-11-07T06:00:49.272Z,21.7
2023-11-07T06:01:54.835Z,21.69
2023-11-07T06:03:00.437Z,21.7
2023-11-07T06:04:06.794Z,21.71
2023-11-07T06:05:12.681Z,21.7
2023-11-07T06:06:18.341Z,21.71
2023-11-07T06:07:24.214Z,21.71
2023-11-07T06:08:29.783Z,21.7
2023-11-07T06:09:35.259Z,21.7
2023-11-07T06:10:40.831Z,21.7
2023-11-07T06:11:46.351Z,21.71
2023-11-07T06:12:51.945Z,21.7
2023-11-07T06:13:57.580Z,21.69
2023-11-07T06:15:03.127Z,21.68
2023-11-07T06:16:08.706Z,21.67
2023-11-07T06:17:14.156Z,21.67
2023-11-07T06:18:19.673Z,21.67
2023-11-07T06:19:25.597Z,21.67
2023-11-07T06:20:31.335Z,21.66
2023-11-07T06:21:36.815Z,21.65
2023-11-07T06:22:42.423Z,21.65
2023-11-07T06:23:47.933Z,21.64
2023-11-07T06:24:53.514Z,21.64
2023-11-07T06:25:59.010Z,21.63
2023-11-07T06:27:04.534Z,21.63
2023-11-07T06:28:10.211Z,21.61
2023-11-07T06:29:16.125Z,21.6
2023-11-07T06:30:21.811Z,21.58
2023-11-07T06:31:27.332Z,21.57
2023-11-07T06:32:32.857Z,21.56
2023-11-07T06:33:38.548Z,21.56
2023-11-07T06:34:44.634Z,21.55
2023-11-07T06:35:50.670Z,21.55
2023-11-07T06:36:56.435Z,21.54
2023-11-07T06:38:01.941Z,21.54
2023-11-07T06:39:07.556Z,21.53
2023-11-07T06:40:14.482Z,21.53
2023-11-07T06:41:23.436Z,21.54
2023-11-07T06:42:28.910Z,21.55
2023-11-07T06:43:34.406Z,21.56
2023-11-07T06:44:39.944Z,21.57
2023-11-07T06:45:45.516Z,21.59
2023-11-07T06:46:51.067Z,21.59
2023-11-07T06:47:56.954Z,21.58
2023-11-07T06:49:03.019Z,21.58
2023-11-07T06:50:09.197Z,21.58
2023-11-07T06:51:14.785Z,21.58
2023-11-07T06:52:20.360Z,21.59
2023-11-07T06:53:25.853Z,21.58
2023-11-07T06:54:31.423Z,21.59
2023-11-07T06:55:37.023Z,21.58
2023-11-07T06:56:42.584Z,21.58
2023-11-07T06:57:48.355Z,21.58
2023-11-07T06:58:53.978Z,21.59
2023-11-07T06:59:59.627Z,21.59
2023-11-07T07:01:05.503Z,21.61
2023-11-07T07:02:10.988Z,21.61
2023-11-07T07:03:16.559Z,21.63
2023-11-07T07:04:22.405Z,21.62
2023-11-07T07:05:28.062Z,21.63
2023-11-07T07:06:33.745Z,21.62
2023-11-07T07:07:39.345Z,21.62
2023-11-07T07:08:44.856Z,21.63
2023-11-07T07:09:50.481Z,21.61
2023-11-07T07:10:55.966Z,21.62
2023-11-07T07:12:01.462Z,21.61
2023-11-07T07:13:07.217Z,21.61
2023-11-07T07:14:12.739Z,21.61
2023-11-07T07:15:18.453Z,21.61
2023-11-07T07:16:24.153Z,21.6
2023-11-07T07:17:29.637Z,21.59
2023-11-07T07:18:35.301Z,21.59
2023-11-07T07:19:40.996Z,21.58
2023-11-07T07:20:47.523Z,21.58
2023-11-07T07:21:53.100Z,21.58
2023-11-07T07:22:58.752Z,21.58
2023-11-07T07:24:04.233Z,21.58
2023-11-07T07:25:09.884Z,21.58
2023-11-07T07:26:15.397Z,21.57
2023-11-07T07:27:20.882Z,21.57
2023-11-07T07:28:26.358Z,21.56
2023-11-07T07:29:31.861Z,21.56
2023-11-07T07:30:37.361Z,21.55
2023-11-07T07:31:45.790Z,21.53
2023-11-07T07:32:51.669Z,21.53
2023-11-07T07:33:58.109Z,21.52
2023-11-07T07:35:03.835Z,21.51
2023-11-07T07:36:09.377Z,21.52
2023-11-07T07:37:15.017Z,21.51
2023-11-07T07:38:20.634Z,21.5
2023-11-07T07:39:26.462Z,21.5
2023-11-07T07:40:33.500Z,21.5
2023-11-07T07:41:39.049Z,21.49
2023-11-07T07:42:44.653Z,21.49
2023-11-07T07:43:50.121Z,21.49
2023-11-07T07:44:55.671Z,21.48
2023-11-07T07:46:01.245Z,21.48
2023-11-07T07:47:06.737Z,21.48
2023-11-07T07:48:12.613Z,21.48
2023-11-07T07:49:18.830Z,21.48
2023-11-07T07:50:24.600Z,21.47
2023-11-07T07:51:30.144Z,21.47
2023-11-07T07:52:35.667Z,21.46
2023-11-07T07:53:41.289Z,21.45
2023-11-07T07:54:55.320Z,21.47
2023-11-07T07:56:34.830Z,21.47
2023-11-07T07:57:40.397Z,21.46
2023-11-07T07:58:45.915Z,21.47
2023-11-07T07:59:51.421Z,21.43
2023-11-07T08:00:57.047Z,21.42
2023-11-07T08:02:02.548Z,21.44
2023-11-07T08:03:08.590Z,21.43
2023-11-07T08:04:15.120Z,21.42
2023-11-07T08:05:20.678Z,21.41
2023-11-07T08:06:26.347Z,21.41
2023-11-07T08:07:31.950Z,21.4
2023-11-07T08:08:37.458Z,21.38
2023-11-07T08:09:42.998Z,21.35
2023-11-07T08:10:48.465Z,21.36
2023-11-07T08:11:54.644Z,21.31
2023-11-07T08:13:00.375Z,21.32
2023-11-07T08:14:05.894Z,21.3
2023-11-07T08:15:11.436Z,21.28
2023-11-07T08:16:17.132Z,21.26
2023-11-07T08:17:22.644Z,21.24
2023-11-07T08:18:28.287Z,21.22
2023-11-07T08:19:34.024Z,21.21
2023-11-07T08:20:40.109Z,21.2
2023-11-07T08:21:45.979Z,21.18
2023-11-07T08:22:51.450Z,21.18
2023-11-07T08:23:57.055Z,21.18
2023-11-07T08:25:02.611Z,21.17
2023-11-07T08:26:08.094Z,21.14
2023-11-07T08:27:13.576Z,21.15
2023-11-07T08:28:19.163Z,21.12
2023-11-07T08:29:24.630Z,21.11
2023-11-07T08:30:30.109Z,21.12
2023-11-07T08:31:35.579Z,21.11
2023-11-07T08:32:41.180Z,21.11
2023-11-07T08:33:48.297Z,21.09
2023-11-07T08:34:54.222Z,21.08
2023-11-07T08:35:59.778Z,21.08
2023-11-07T08:37:07.326Z,21.08
2023-11-07T08:38:17.218Z,21.06
2023-11-07T08:39:22.973Z,21.06
2023-11-07T08:40:28.827Z,21.03
2023-11-07T08:41:34.299Z,21.01
2023-11-07T08:42:39.798Z,20.97
2023-11-07T08:43:45.374Z,20.97
2023-11-07T08:44:50.846Z,20.96
2023-11-07T08:45:56.497Z,20.97
2023-11-07T08:47:01.989Z,20.95
2023-11-07T08:48:07.627Z,20.92
2023-11-07T08:49:13.754Z,20.93
2023-11-07T08:50:19.471Z,20.91
2023-11-07T08:51:25.427Z,20.9
2023-11-07T08:52:30.956Z,20.91
2023-11-07T08:53:37.670Z,20.89
2023-11-07T08:54:44.388Z,20.88
2023-11-07T08:55:49.894Z,20.89
2023-11-07T08:56:55.402Z,20.9
2023-11-07T08:58:01.007Z,20.86
2023-11-07T08:59:06.633Z,20.85
2023-11-07T09:00:12.154Z,20.85
2023-11-07T09:01:18.351Z,20.85
2023-11-07T09:02:24.046Z,20.82
2023-11-07T09:03:29.784Z,20.83
2023-11-07T09:04:35.483Z,20.81
2023-11-07T09:05:41.125Z,20.8
2023-11-07T09:06:46.794Z,20.81
2023-11-07T09:07:52.280Z,20.83
2023-11-07T09:08:57.826Z,20.81
2023-11-07T09:10:03.418Z,20.82
2023-11-07T09:11:08.939Z,20.79
2023-11-07T09:12:14.450Z,20.79
2023-11-07T09:13:20.052Z,20.79
2023-11-07T09:14:25.613Z,20.77
2023-11-07T09:15:31.150Z,20.77
2023-11-07T09:16:36.700Z,20.78
2023-11-07T09:17:42.318Z,20.77
2023-11-07T09:18:48.937Z,20.78
2023-11-07T09:19:54.794Z,20.76
2023-11-07T09:21:00.284Z,20.75
2023-11-07T09:22:05.892Z,20.74
2023-11-07T09:23:11.495Z,20.74
2023-11-07T09:24:17.276Z,20.71
2023-11-07T09:25:22.918Z,20.71
2023-11-07T09:26:28.416Z,20.72
2023-11-07T09:27:33.914Z,20.72
2023-11-07T09:28:39.422Z,20.73
2023-11-07T09:29:44.981Z,20.7
2023-11-07T09:30:50.635Z,20.7
2023-11-07T09:31:56.162Z,20.7
2023-11-07T09:33:02.083Z,20.66
2023-11-07T09:34:08.011Z,20.67
2023-11-07T09:35:13.925Z,20.67
2023-11-07T09:36:19.448Z,20.66
2023-11-07T09:37:25.135Z,20.65
2023-11-07T09:38:36.441Z,20.67
2023-11-07T09:39:57.099Z,20.64
2023-11-07T09:41:02.712Z,20.64
2023-11-07T09:42:08.248Z,20.65
2023-11-07T09:43:15.284Z,20.66
2023-11-07T09:44:21.901Z,20.65
2023-11-07T09:45:27.555Z,20.63
2023-11-07T09:46:33.076Z,20.62
2023-11-07T09:47:38.580Z,20.62
2023-11-07T09:48:44.737Z,20.63
2023-11-07T09:49:50.762Z,20.62
2023-11-07T09:50:56.299Z,20.6
2023-11-07T09:52:01.867Z,20.57
2023-11-07T09:53:07.360Z,20.57
2023-11-07T09:54:12.888Z,20.6
2023-11-07T09:55:18.846Z,20.57
2023-11-07T09:56:24.409Z,20.57
2023-11-07T09:57:30.354Z,20.55
2023-11-07T09:58:35.939Z,20.55
2023-11-07T09:59:41.997Z,20.54
2023-11-07T10:00:47.588Z,20.56
2023-11-07T10:01:53.129Z,20.55
2023-11-07T10:02:59.656Z,20.54
2023-11-07T10:04:05.840Z,20.55
2023-11-07T10:05:12.087Z,20.55
2023-11-07T10:06:17.953Z,20.54
2023-11-07T10:07:23.539Z,20.54
2023-11-07T10:08:32.433Z,20.52
2023-11-07T10:09:37.964Z,20.52
2023-11-07T10:10:43.587Z,20.52
2023-11-07T10:11:49.153Z,20.52
2023-11-07T10:12:55.354Z,20.51
2023-11-07T10:14:00.803Z,20.51
2023-11-07T10:15:06.737Z,20.51
2023-11-07T10:16:16.327Z,20.5
2023-11-07T10:17:24.584Z,20.49
2023-11-07T10:18:30.306Z,20.48
2023-11-07T10:19:36.216Z,20.48
2023-11-07T10:20:42.001Z,20.45
2023-11-07T10:21:47.619Z,20.45
2023-11-07T10:22:53.073Z,20.46
2023-11-07T10:23:58.682Z,20.45
2023-11-07T10:25:04.604Z,20.45
2023-11-07T10:26:10.147Z,20.48
2023-11-07T10:27:15.673Z,20.48
2023-11-07T10:28:21.483Z,20.46
2023-11-07T10:29:27.940Z,20.45
2023-11-07T10:30:33.592Z,20.44
2023-11-07T10:31:39.517Z,20.44
2023-11-07T10:32:45.159Z,20.45
2023-11-07T10:33:51.153Z,20.46
2023-11-07T10:34:57.166Z,20.45
2023-11-07T10:36:02.755Z,20.41
2023-11-07T10:37:08.855Z,20.38
2023-11-07T10:38:14.366Z,20.4
2023-11-07T10:39:19.922Z,20.44
2023-11-07T10:40:25.580Z,20.46
2023-11-07T10:41:31.170Z,20.49
2023-11-07T10:42:36.658Z,20.53
2023-11-07T10:43:42.151Z,20.54
2023-11-07T10:44:47.692Z,20.55
2023-11-07T10:45:53.475Z,20.55
2023-11-07T10:46:58.994Z,20.57
2023-11-07T10:48:04.678Z,20.6
2023-11-07T10:49:11.582Z,20.61
2023-11-07T10:50:17.283Z,20.61
2023-11-07T10:51:23.177Z,20.63
2023-11-07T10:52:28.828Z,20.64
2023-11-07T10:53:34.393Z,20.64
2023-11-07T10:54:42.382Z,20.64
2023-11-07T10:55:47.922Z,20.66
2023-11-07T10:56:53.416Z,20.67
2023-11-07T10:57:59.035Z,20.67
2023-11-07T10:59:04.579Z,20.7
2023-11-07T11:00:10.241Z,20.73
2023-11-07T11:01:15.939Z,20.73
2023-11-07T11:02:21.499Z,20.73
2023-11-07T11:03:27.151Z,20.73
2023-11-07T11:04:32.883Z,20.74
2023-11-07T11:05:38.693Z,20.73
2023-11-07T11:06:48.056Z,20.73
2023-11-07T11:07:53.899Z,20.75
2023-11-07T11:09:00.490Z,20.75
2023-11-07T11:10:06.187Z,20.75
2023-11-07T11:11:11.770Z,20.75
2023-11-07T11:12:17.243Z,20.75
2023-11-07T11:13:22.890Z,20.75
2023-11-07T11:14:28.408Z,20.75
2023-11-07T11:15:33.910Z,20.76
2023-11-07T11:16:39.448Z,20.78
2023-11-07T11:17:45.305Z,20.77
2023-11-07T11:18:51.349Z,20.77
2023-11-07T11:19:57.491Z,20.76
2023-11-07T11:21:03.681Z,20.76
2023-11-07T11:22:09.308Z,20.75
2023-11-07T11:23:14.793Z,20.76
2023-11-07T11:24:20.314Z,20.75
2023-11-07T11:25:25.948Z,20.74
2023-11-07T11:26:31.447Z,20.74
2023-11-07T11:27:37.019Z,20.74
2023-11-07T11:28:42.522Z,20.73
2023-11-07T11:29:48.080Z,20.75
2023-11-07T11:30:53.697Z,20.73
2023-11-07T11:31:59.323Z,20.73
2023-11-07T11:33:04.911Z,20.73
2023-11-07T11:34:11.324Z,20.71
2023-11-07T11:35:17.361Z,20.73
2023-11-07T11:36:23.312Z,20.73
2023-11-07T11:37:28.854Z,20.73
2023-11-07T11:38:34.392Z,20.71
2023-11-07T11:39:39.923Z,20.73
2023-11-07T11:40:45.469Z,20.73
2023-11-07T11:41:51.058Z,20.72
2023-11-07T11:42:56.665Z,20.73
2023-11-07T11:44:02.128Z,20.75
2023-11-07T11:45:07.617Z,20.78
2023-11-07T11:46:13.281Z,20.81
2023-11-07T11:47:18.903Z,20.84
2023-11-07T11:48:24.601Z,20.87
2023-11-07T11:49:30.523Z,20.88
2023-11-07T11:50:36.036Z,20.91
2023-11-07T11:51:41.494Z,20.92
2023-11-07T11:52:47.025Z,20.94
2023-11-07T11:53:52.543Z,20.97
2023-11-07T11:54:58.454Z,21
2023-11-07T11:56:03.984Z,21.02
2023-11-07T11:57:09.564Z,21.03
2023-11-07T11:58:15.297Z,21.04
2023-11-07T11:59:20.977Z,21.07
2023-11-07T12:00:26.509Z,21.08
2023-11-07T12:01:32.124Z,21.1
2023-11-07T12:02:37.834Z,21.12
2023-11-07T12:03:43.948Z,21.12
2023-11-07T12:04:50.173Z,21.11
2023-11-07T12:05:55.716Z,21.11
2023-11-07T12:07:01.545Z,21.11
2023-11-07T12:08:07.386Z,21.11
2023-11-07T12:09:13.113Z,21.1
2023-11-07T12:10:18.803Z,21.1
2023-11-07T12:11:29.707Z,21.09
2023-11-07T12:12:50.193Z,21.08
2023-11-07T12:13:55.713Z,21.08
2023-11-07T12:15:01.409Z,21.07
2023-11-07T12:16:07.079Z,21.06
2023-11-07T12:17:12.543Z,21.05
2023-11-07T12:18:18.129Z,21.05
2023-11-07T12:19:23.952Z,21.06
2023-11-07T12:20:29.712Z,21.06
2023-11-07T12:21:35.224Z,21.07
2023-11-07T12:22:40.705Z,21.07
2023-11-07T12:23:46.358Z,21.07
2023-11-07T12:24:52.037Z,21.07
2023-11-07T12:25:57.553Z,21.07
2023-11-07T12:27:03.141Z,21.07
2023-11-07T12:28:08.777Z,21.06
2023-11-07T12:29:16.332Z,21.07
2023-11-07T12:30:21.843Z,21.06
2023-11-07T12:31:27.622Z,21.07
2023-11-07T12:32:33.155Z,21.07
2023-11-07T12:33:38.978Z,21.08
2023-11-07T12:34:45.041Z,21.07
2023-11-07T12:35:50.808Z,21.06
2023-11-07T12:36:56.418Z,21.07
2023-11-07T12:38:01.887Z,21.07
2023-11-07T12:39:07.453Z,21.07
2023-11-07T12:40:13.205Z,21.07
2023-11-07T12:41:18.725Z,21.06
2023-11-07T12:42:24.232Z,21.06
2023-11-07T12:43:29.826Z,21.06
2023-11-07T12:44:35.301Z,21.07
2023-11-07T12:45:40.928Z,21.06
2023-11-07T12:46:46.435Z,21.05
2023-11-07T12:47:52.002Z,21.05
2023-11-07T12:48:57.719Z,21.06
2023-11-07T12:50:03.737Z,21.05
2023-11-07T12:51:09.274Z,21.05
2023-11-07T12:52:15.172Z,21.05
2023-11-07T12:53:20.706Z,21.05
2023-11-07T12:54:26.232Z,21.05
2023-11-07T12:55:31.946Z,21.05
2023-11-07T12:56:37.420Z,21.05
2023-11-07T12:57:42.933Z,21.06
2023-11-07T12:58:48.448Z,21.06
2023-11-07T12:59:53.981Z,21.07
2023-11-07T13:00:59.610Z,21.06
2023-11-07T13:02:05.268Z,21.07
2023-11-07T13:03:10.809Z,21.06
2023-11-07T13:04:16.758Z,21.05
2023-11-07T13:05:22.620Z,21.05
2023-11-07T13:06:28.359Z,21.04
2023-11-07T13:07:33.934Z,21.03
2023-11-07T13:08:39.452Z,21.01
2023-11-07T13:09:44.962Z,21.01
2023-11-07T13:10:50.487Z,20.99
2023-11-07T13:11:55.998Z,20.99
2023-11-07T13:13:01.572Z,20.99
2023-11-07T13:14:07.088Z,20.98
2023-11-07T13:15:12.637Z,20.98
2023-11-07T13:16:18.390Z,20.97
2023-11-07T13:17:25.818Z,20.97
2023-11-07T13:18:33.390Z,20.96
2023-11-07T13:19:39.566Z,20.95
2023-11-07T13:20:45.298Z,20.97
2023-11-07T13:21:51.048Z,20.94
2023-11-07T13:22:56.550Z,20.95
2023-11-07T13:24:02.527Z,20.95
2023-11-07T13:25:08.153Z,20.93
2023-11-07T13:26:13.664Z,20.92
2023-11-07T13:27:19.284Z,20.91
2023-11-07T13:28:26.662Z,20.91
2023-11-07T13:29:33.387Z,20.9
2023-11-07T13:30:38.935Z,20.91
2023-11-07T13:31:44.440Z,20.89
2023-11-07T13:32:50.061Z,20.91
2023-11-07T13:33:56.014Z,20.9
2023-11-07T13:35:02.359Z,20.89
2023-11-07T13:36:08.120Z,20.89
2023-11-07T13:37:15.522Z,20.88
2023-11-07T13:38:22.645Z,20.9
2023-11-07T13:39:28.257Z,20.9
2023-11-07T13:40:33.998Z,20.92
2023-11-07T13:41:39.584Z,20.91
2023-11-07T13:42:45.339Z,20.93
2023-11-07T13:43:50.857Z,20.91
2023-11-07T13:44:56.398Z,20.89
2023-11-07T13:46:01.999Z,20.9
2023-11-07T13:47:07.565Z,20.88
2023-11-07T13:48:13.133Z,20.9
2023-11-07T13:49:19.067Z,20.9
2023-11-07T13:50:24.874Z,20.92
2023-11-07T13:51:30.422Z,20.91
2023-11-07T13:52:36.091Z,20.91
2023-11-07T13:53:41.643Z,20.91
2023-11-07T13:54:47.145Z,20.88
2023-11-07T13:55:52.748Z,20.87
2023-11-07T13:56:58.405Z,20.87
2023-11-07T13:58:03.981Z,20.87
2023-11-07T13:59:09.560Z,20.84
2023-11-07T14:00:15.105Z,20.83
2023-11-07T14:01:20.836Z,20.83
2023-11-07T14:02:26.391Z,20.83
2023-11-07T14:03:31.979Z,20.82
2023-11-07T14:04:37.966Z,20.82
2023-11-07T14:05:43.832Z,20.82
2023-11-07T14:06:49.622Z,20.82
2023-11-07T14:07:55.199Z,20.82
2023-11-07T14:09:01.042Z,20.81
2023-11-07T14:10:06.875Z,20.81
2023-11-07T14:11:12.466Z,20.82